メインページ
METAR-TAF:

METAR-TAF

空港 :

Coatesville, ペンシルバニア州, アメリカ合衆国

緯度: 39-58-44N, 経度: 075-51-56W, 海抜: 201m

現時点の気象観測

当レポートは22分前の15:55(UTC)に作成
変向風 4kt
気温 -7°C
湿度 93%
気圧 1031 hPa
視程: 1.2km
高度100ftの曇り
小雪

METAR: KMQS 181555Z AUTO VRB04KT 3/4SM -SN OVC001 M07/M08 A3044 RMK AO2

時間: 11:17 (16:17 UTC)


TAF: 見つかりません

4,000以上の空港の気象観測と天気予報(METAR報とTAF報)

利用可能な観測所は地図上に黄色い丸と赤い丸で示す。

丸の上にカーソルを重ねると観測所名を参照できる。

次にクリックすると気象観測と天気予報を参照できる。

マップの切り替え:黒色「×」印の緑ボタンをクリックして拡大、「-」印の緑ボタンをクリックして縮小、緑色の三角印をクリックして隣りの地図に切り替え


METAR-TAF: